Atlanta, ID

8:24 AM MDT on September 23, 2014 (GMT -0600)
RAWS FLECK SUMMIT ID US | Change Station
CLOSE
Current Station
Personal Weather Station
Location: Fairfield, ID
Elevation: 7100 ft
Nearby Weather Stations

Elev 7100 ft 43.62 °N, 114.90 °W | Updated 45 minutes ago

Partly Cloudy
Partly Cloudy
43 °F
Feels Like 43 °F
N
3
Wind Variable Wind from East
Gusts 4.0 mph

Today
High -- | Low -- °F
--% Chance of Precip.
Yesterday
High -- | Low -- °F
Precip. -- in
7:29 AM 7:36 PM
Waning Crescent, 0% visible
Pressure 30.21 in
Visibility 10.0 miles
Clouds Few 15000 ft
Windchill 43 °F
Dew Point 43 °F
Humidity 100%
Rainfall 0.00 in
Snow Depth 0 in , 1 in , 0 in
UV 0 out of 12
Pollen 8.40 out of 12
Ozone Good
PM2.5 Good
Flu Activity Not available.
METAR KSUN 231347Z 28008KT 10SM FEW150 09/08 A3021

More Conditions Fewer Conditions

Pressure 30.21 in
Visibility 10.0 miles
Clouds Few 15000 ft
Windchill 43 °F
Dew Point 43 °F
Humidity 100%
Rainfall 0.00 in
Snow Depth 0 in , 1 in , 0 in
UV 0 out of 12
Pollen 8.40 out of 12
Ozone Good
PM2.5 Good
Flu Activity Not available.
METAR KSUN 231347Z 28008KT 10SM FEW150 09/08 A3021

More Conditions Fewer Conditions

10-Day Weather Forecast

Almanac

Astronomy

Sep. 23, 2014 Rise Set
Actual Time 7:29 AM MDT 7:36 PM MDT
Civil Twilight 7:00 AM MDT 8:05 PM MDT
Nautical Twilight 6:27 AM MDT 8:38 PM MDT
Astronomical Twilight 5:52 AM MDT 9:13 PM MDT
Moon 6:57 AM MDT 7:16 PM MDT
Length of Visible Light 13h 04m
Length of Day
12h 06m
Tomorrow will be 2m 59s shorter.
Waning Crescent, 0% of the Moon is Illuminated
Today
Waning Crescent
Sep 24
New
Oct 1
First Quarter
Oct 8
Full
Oct 15
Last Quarter

Today's Extremes

State Highs State Lows

Community

WunderPhotos

Upload Photos

1,755,705 photos uploaded!

Nearby

Air Quality

  Air Quality AQ Index Pollutant
Yesterday Good
OZONE
Yesterday Good
PM10
Current Good
PM2.5
Current Good
OZONE
Tuesday Good
OZONE
Tuesday Good
PM2.5
Wednesday Good
OZONE

Snow Depth

Station Depth Elevation
Vienna Mine 0 in 8960 ft
Brundage Reservoir 1 in 6300 ft
Myrtle Creek 0 in 3520 ft
Morgan Creek 0 in 7600 ft
Mosquito Ridge 0 in 5200 ft

Earthquake Activity

City Distance Mag. Time & Date
No recent earthquake activity has been reported nearby.
Minimum magnitude displayed is 2.5.

Coastal Water Temperatures

Place Temperature
No Stations Reporting

Nearby Weather Stations